Time;durP1;ratioP1;P1;durP2;ratioP2;P2;SDS_P1;SDS_P2;PMS_P1;PMS_P2;Temp;Humidity;BMP_temperature;BMP_pressure;BME280_temperature;BME280_humidity;BME280_pressure;Samples;Min_cycle;Max_cycle;Signal;HPM_P1;HPM_P2
2023/05/21 00:01:44;;;;;;;5.82;3.45;;;;;;;;;;4435943;32;20030;-73
2023/05/21 00:04:11;;;;;;;7.97;3.97;;;;;;;;;;4437195;32;20457;-73
2023/05/21 00:06:37;;;;;;;6.03;3.60;;;;;;;;;;4435238;32;20018;-74
2023/05/21 00:09:02;;;;;;;6.65;3.10;;;;;;;;;;4435136;32;20086;-74
2023/05/21 00:11:28;;;;;;;4.70;3.00;;;;;;;;;;4435856;32;20048;-73
2023/05/21 00:13:53;;;;;;;5.37;3.58;;;;;;;;;;4436250;32;20022;-73
2023/05/21 00:16:18;;;;;;;5.55;3.42;;;;;;;;;;4436138;32;20124;-73
2023/05/21 00:18:44;;;;;;;4.20;3.70;;;;;;;;;;4436220;32;20419;-74
2023/05/21 00:21:09;;;;;;;3.83;3.12;;;;;;;;;;4435878;32;20061;-73
2023/05/21 00:23:36;;;;;;;6.68;3.40;;;;;;;;;;4437528;32;20079;-74
2023/05/21 00:26:01;;;;;;;6.78;3.65;;;;;;;;;;4436260;32;20087;-73
2023/05/21 00:28:26;;;;;;;4.77;3.23;;;;;;;;;;4435902;32;20022;-74
2023/05/21 00:30:51;;;;;;;6.32;3.62;;;;;;;;;;4436959;32;20552;-74
2023/05/21 00:33:17;;;;;;;9.05;3.33;;;;;;;;;;4437112;32;20056;-74
2023/05/21 00:35:42;;;;;;;4.07;3.30;;;;;;;;;;4437745;32;20120;-74
2023/05/21 00:38:08;;;;;;;5.65;3.20;;;;;;;;;;4434743;32;20539;-74
2023/05/21 00:40:39;;;;;;;5.87;3.67;;;;;;;;;;4435944;32;20056;-73
2023/05/21 00:43:06;;;;;;;10.55;3.72;;;;;;;;;;4436980;32;20320;-74
2023/05/21 00:45:32;;;;;;;6.43;3.70;;;;;;;;;;4435960;32;20043;-74
2023/05/21 00:47:57;;;;;;;4.37;3.40;;;;;;;;;;4435510;32;20038;-74
2023/05/21 00:50:23;;;;;;;4.00;3.15;;;;;;;;;;4434947;32;20415;-74
2023/05/21 00:52:48;;;;;;;4.82;3.92;;;;;;;;;;4437255;32;20033;-74
2023/05/21 00:55:13;;;;;;;4.15;3.42;;;;;;;;;;4436914;32;20078;-74
2023/05/21 00:57:39;;;;;;;3.80;3.05;;;;;;;;;;4436726;32;20305;-74
2023/05/21 01:00:07;;;;;;;4.72;3.17;;;;;;;;;;4436466;32;20037;-73
2023/05/21 01:02:36;;;;;;;6.87;4.22;;;;;;;;;;4436984;32;20021;-73
2023/05/21 01:05:05;;;;;;;6.57;3.90;;;;;;;;;;4435427;32;20026;-73
2023/05/21 01:07:34;;;;;;;4.97;3.40;;;;;;;;;;4435058;32;20056;-73
2023/05/21 01:10:03;;;;;;;14.87;4.18;;;;;;;;;;4436254;32;20094;-72
2023/05/21 01:12:30;;;;;;;6.93;3.90;;;;;;;;;;4435241;32;20117;-73
2023/05/21 01:14:56;;;;;;;4.80;3.65;;;;;;;;;;4435779;32;20387;-73
2023/05/21 01:17:23;;;;;;;7.62;3.60;;;;;;;;;;4437264;32;20258;-73
2023/05/21 01:19:48;;;;;;;8.13;3.83;;;;;;;;;;4434954;32;20017;-73
2023/05/21 01:22:15;;;;;;;6.57;3.45;;;;;;;;;;4436547;32;20048;-72
2023/05/21 01:24:47;;;;;;;7.22;3.33;;;;;;;;;;4436370;32;20085;-74
2023/05/21 01:27:12;;;;;;;4.45;3.45;;;;;;;;;;4435118;32;20081;-74
2023/05/21 01:29:37;;;;;;;4.53;3.42;;;;;;;;;;4433421;32;20052;-74
2023/05/21 01:32:10;;;;;;;8.30;3.90;;;;;;;;;;4435303;32;20072;-74
2023/05/21 01:34:55;;;;;;;6.18;3.50;;;;;;;;;;4435668;32;20303;-74
2023/05/21 01:37:35;;;;;;;10.00;4.22;;;;;;;;;;4415831;32;20065;-73
2023/05/21 01:40:12;;;;;;;9.55;3.72;;;;;;;;;;4427523;32;20025;-73
2023/05/21 01:42:40;;;;;;;5.95;3.85;;;;;;;;;;4435418;32;20068;-74
2023/05/21 01:45:06;;;;;;;5.87;4.18;;;;;;;;;;4434612;32;20026;-72
2023/05/21 01:47:32;;;;;;;7.90;3.95;;;;;;;;;;4435722;32;20152;-72
2023/05/21 01:49:58;;;;;;;7.35;3.92;;;;;;;;;;4435529;32;20193;-73
2023/05/21 01:52:23;;;;;;;5.40;3.65;;;;;;;;;;4434900;32;20026;-73
2023/05/21 01:54:50;;;;;;;6.57;3.90;;;;;;;;;;4435088;32;20528;-72
2023/05/21 01:57:16;;;;;;;5.40;3.67;;;;;;;;;;4435204;32;20025;-72
2023/05/21 01:59:43;;;;;;;6.45;4.18;;;;;;;;;;4435319;32;20145;-73
2023/05/21 02:02:08;;;;;;;8.95;4.22;;;;;;;;;;4435075;32;20384;-72
2023/05/21 02:04:33;;;;;;;6.00;3.78;;;;;;;;;;4435659;32;20066;-73
2023/05/21 02:06:58;;;;;;;7.22;4.05;;;;;;;;;;4436959;32;20048;-73
2023/05/21 02:09:23;;;;;;;5.50;4.23;;;;;;;;;;4435012;32;20026;-73
2023/05/21 02:11:49;;;;;;;8.73;4.07;;;;;;;;;;4436631;32;20436;-73
2023/05/21 02:14:15;;;;;;;7.50;3.67;;;;;;;;;;4435755;32;20124;-73
2023/05/21 02:16:40;;;;;;;9.55;4.25;;;;;;;;;;4436156;32;20044;-73
2023/05/21 02:19:09;;;;;;;8.63;4.10;;;;;;;;;;4437141;32;20026;-73
2023/05/21 02:21:34;;;;;;;4.75;3.55;;;;;;;;;;4427834;32;20068;-73
2023/05/21 02:23:59;;;;;;;6.90;4.20;;;;;;;;;;4422066;32;20018;-73
2023/05/21 02:26:25;;;;;;;9.48;4.57;;;;;;;;;;4422932;32;20079;-73
2023/05/21 02:28:51;;;;;;;6.68;4.37;;;;;;;;;;4422405;32;20171;-72
2023/05/21 02:31:17;;;;;;;4.82;3.80;;;;;;;;;;4421405;32;20049;-73
2023/05/21 02:33:42;;;;;;;6.72;3.62;;;;;;;;;;4422222;32;20017;-73
2023/05/21 02:36:11;;;;;;;5.78;4.12;;;;;;;;;;4422653;32;20452;-73
2023/05/21 02:38:39;;;;;;;6.28;4.20;;;;;;;;;;4422236;32;20019;-73
2023/05/21 02:41:04;;;;;;;9.10;4.72;;;;;;;;;;4422676;32;20075;-73
2023/05/21 02:43:29;;;;;;;7.45;4.43;;;;;;;;;;4421040;32;20097;-72
2023/05/21 02:45:55;;;;;;;6.80;4.17;;;;;;;;;;4422946;32;20029;-73
2023/05/21 02:48:20;;;;;;;4.87;4.00;;;;;;;;;;4423057;32;20479;-72
2023/05/21 02:50:45;;;;;;;7.87;4.40;;;;;;;;;;4422583;32;20043;-72
2023/05/21 02:53:10;;;;;;;12.00;4.60;;;;;;;;;;4423901;32;20069;-72
2023/05/21 02:55:35;;;;;;;7.95;4.32;;;;;;;;;;4421880;32;20044;-73
2023/05/21 02:58:01;;;;;;;9.10;4.25;;;;;;;;;;4423519;32;20150;-72
2023/05/21 03:00:26;;;;;;;8.05;4.65;;;;;;;;;;4433716;32;20030;-72
2023/05/21 03:02:51;;;;;;;6.12;4.68;;;;;;;;;;4424751;32;20144;-73
2023/05/21 03:05:16;;;;;;;8.10;4.37;;;;;;;;;;4437560;32;20030;-73
2023/05/21 03:07:42;;;;;;;7.15;4.37;;;;;;;;;;4438157;32;20121;-73
2023/05/21 03:10:07;;;;;;;7.68;5.28;;;;;;;;;;4436759;32;20068;-73
2023/05/21 03:12:32;;;;;;;6.20;4.32;;;;;;;;;;4438695;32;20021;-73
2023/05/21 03:14:58;;;;;;;6.43;4.78;;;;;;;;;;4438242;32;20026;-73
2023/05/21 03:17:23;;;;;;;5.68;4.28;;;;;;;;;;4435802;32;20484;-74
2023/05/21 03:19:48;;;;;;;6.33;4.63;;;;;;;;;;4424722;32;20064;-72
2023/05/21 03:22:13;;;;;;;6.83;4.40;;;;;;;;;;4430431;32;20117;-72
2023/05/21 03:24:40;;;;;;;8.23;4.40;;;;;;;;;;4436057;32;20125;-72
2023/05/21 03:27:05;;;;;;;8.20;4.68;;;;;;;;;;4435888;32;20025;-72
2023/05/21 03:29:31;;;;;;;7.15;5.05;;;;;;;;;;4435589;32;20099;-72
2023/05/21 03:31:56;;;;;;;7.05;5.00;;;;;;;;;;4439348;32;20022;-72
2023/05/21 03:34:22;;;;;;;6.20;4.72;;;;;;;;;;4442922;32;20026;-72
2023/05/21 03:36:48;;;;;;;8.05;4.37;;;;;;;;;;4437157;32;20022;-73
2023/05/21 03:39:13;;;;;;;5.07;4.40;;;;;;;;;;4435834;32;20044;-72
2023/05/21 03:41:38;;;;;;;6.03;4.72;;;;;;;;;;4435665;32;20089;-72
2023/05/21 03:44:04;;;;;;;7.00;5.05;;;;;;;;;;4436347;32;20034;-73
2023/05/21 03:46:29;;;;;;;6.72;4.97;;;;;;;;;;4438110;32;20399;-73
2023/05/21 03:48:54;;;;;;;10.90;5.35;;;;;;;;;;4437499;32;20098;-73
2023/05/21 03:51:19;;;;;;;6.95;4.60;;;;;;;;;;4435645;32;20410;-72
2023/05/21 03:53:44;;;;;;;9.47;5.07;;;;;;;;;;4435335;32;20056;-72
2023/05/21 03:56:10;;;;;;;8.80;5.05;;;;;;;;;;4435678;32;20125;-73
2023/05/21 03:58:35;;;;;;;6.00;4.80;;;;;;;;;;4435299;32;20052;-75
2023/05/21 04:01:01;;;;;;;7.05;4.78;;;;;;;;;;4430621;32;20172;-72
2023/05/21 04:03:26;;;;;;;6.22;5.32;;;;;;;;;;4434462;32;20059;-72
2023/05/21 04:05:52;;;;;;;7.72;4.68;;;;;;;;;;4437863;32;20022;-73
2023/05/21 04:08:17;;;;;;;9.10;5.72;;;;;;;;;;4437963;32;20025;-73
2023/05/21 04:10:42;;;;;;;8.13;5.40;;;;;;;;;;4431841;32;20133;-72
2023/05/21 04:13:07;;;;;;;8.18;5.78;;;;;;;;;;4431822;32;20415;-73
2023/05/21 04:15:34;;;;;;;8.15;5.12;;;;;;;;;;4435693;32;20455;-72
2023/05/21 04:17:59;;;;;;;10.60;5.75;;;;;;;;;;4435900;32;20014;-73
2023/05/21 04:20:24;;;;;;;7.30;4.87;;;;;;;;;;4437320;32;20021;-72
2023/05/21 04:22:50;;;;;;;10.23;5.15;;;;;;;;;;4422569;32;20017;-72
2023/05/21 04:25:15;;;;;;;7.28;5.70;;;;;;;;;;4422432;32;20049;-72
2023/05/21 04:27:42;;;;;;;7.20;5.75;;;;;;;;;;4421219;32;20121;-72
2023/05/21 04:30:08;;;;;;;8.07;5.55;;;;;;;;;;4421063;32;20438;-72
2023/05/21 04:32:33;;;;;;;8.07;5.80;;;;;;;;;;4420435;32;20113;-72
2023/05/21 04:34:59;;;;;;;9.15;5.45;;;;;;;;;;4419641;32;20044;-73
2023/05/21 04:37:26;;;;;;;6.80;5.22;;;;;;;;;;4432846;32;20052;-73
2023/05/21 04:39:52;;;;;;;6.97;5.22;;;;;;;;;;4436911;32;20118;-72
2023/05/21 04:42:18;;;;;;;8.30;5.25;;;;;;;;;;4436539;32;20096;-72
2023/05/21 04:44:43;;;;;;;6.87;5.07;;;;;;;;;;4438148;32;20051;-73
2023/05/21 04:47:09;;;;;;;7.32;4.55;;;;;;;;;;4437095;32;20040;-73
2023/05/21 04:49:34;;;;;;;8.35;5.43;;;;;;;;;;4440688;32;20017;-73
2023/05/21 04:52:00;;;;;;;7.30;5.20;;;;;;;;;;4439404;32;20030;-73
2023/05/21 04:54:25;;;;;;;7.40;5.57;;;;;;;;;;4437024;32;20022;-72
2023/05/21 04:56:50;;;;;;;7.18;5.37;;;;;;;;;;4437043;32;20497;-72
2023/05/21 04:59:16;;;;;;;10.30;5.60;;;;;;;;;;4435267;32;20133;-72
2023/05/21 05:01:42;;;;;;;8.20;5.62;;;;;;;;;;4434764;32;20174;-72
2023/05/21 05:04:08;;;;;;;7.32;5.22;;;;;;;;;;4435356;32;20442;-73
2023/05/21 05:06:33;;;;;;;10.48;6.35;;;;;;;;;;4421393;32;20034;-72
2023/05/21 05:08:58;;;;;;;6.45;5.20;;;;;;;;;;4421823;32;20113;-72
2023/05/21 05:11:24;;;;;;;10.18;6.15;;;;;;;;;;4418777;32;20053;-72
2023/05/21 05:13:49;;;;;;;7.75;5.45;;;;;;;;;;4420251;32;20022;-73
2023/05/21 05:16:17;;;;;;;9.20;5.80;;;;;;;;;;4420711;32;20015;-72
2023/05/21 05:18:42;;;;;;;8.15;5.95;;;;;;;;;;4419747;32;20395;-72
2023/05/21 05:21:07;;;;;;;6.47;5.25;;;;;;;;;;4420729;32;20060;-73
2023/05/21 05:23:32;;;;;;;7.45;5.05;;;;;;;;;;4420187;32;20034;-73
2023/05/21 05:25:58;;;;;;;7.45;5.62;;;;;;;;;;4418776;32;20022;-73
2023/05/21 05:28:23;;;;;;;8.10;5.37;;;;;;;;;;4421070;32;20109;-73
2023/05/21 05:30:48;;;;;;;9.80;5.78;;;;;;;;;;4420331;32;20481;-73
2023/05/21 05:33:13;;;;;;;8.27;5.93;;;;;;;;;;4420358;32;20359;-73
2023/05/21 05:35:38;;;;;;;7.80;5.28;;;;;;;;;;4428668;32;20048;-73
2023/05/21 05:38:04;;;;;;;7.30;5.85;;;;;;;;;;4435983;32;20347;-73
2023/05/21 05:40:29;;;;;;;7.90;5.57;;;;;;;;;;4436101;32;20072;-73
2023/05/21 05:42:54;;;;;;;8.02;5.20;;;;;;;;;;4435704;32;20022;-73
2023/05/21 05:45:20;;;;;;;11.68;6.20;;;;;;;;;;4435318;32;20099;-73
2023/05/21 05:47:45;;;;;;;9.05;5.80;;;;;;;;;;4436116;32;20441;-73
2023/05/21 05:50:11;;;;;;;13.65;6.57;;;;;;;;;;4435433;32;20026;-73
2023/05/21 05:52:36;;;;;;;11.00;5.97;;;;;;;;;;4435151;32;20078;-72
2023/05/21 05:55:01;;;;;;;9.57;5.80;;;;;;;;;;4436244;32;20447;-73
2023/05/21 05:57:26;;;;;;;7.32;5.78;;;;;;;;;;4436600;32;20078;-73
2023/05/21 05:59:51;;;;;;;6.70;5.22;;;;;;;;;;4438349;32;20350;-73
2023/05/21 06:02:17;;;;;;;7.32;6.00;;;;;;;;;;4438671;32;20022;-72
2023/05/21 06:04:42;;;;;;;6.97;5.32;;;;;;;;;;4438422;32;20017;-74
2023/05/21 06:07:07;;;;;;;9.48;5.87;;;;;;;;;;4440209;32;20017;-74
2023/05/21 06:09:32;;;;;;;7.47;5.72;;;;;;;;;;4436889;32;20025;-73
2023/05/21 06:11:57;;;;;;;8.57;6.50;;;;;;;;;;4438118;32;20154;-72
2023/05/21 06:14:23;;;;;;;11.30;6.50;;;;;;;;;;4432977;32;20114;-72
2023/05/21 06:16:48;;;;;;;7.55;6.50;;;;;;;;;;4423205;32;20037;-72
2023/05/21 06:19:13;;;;;;;8.77;6.28;;;;;;;;;;4423834;32;20030;-73
2023/05/21 06:21:38;;;;;;;12.05;6.53;;;;;;;;;;4423610;32;20018;-73
2023/05/21 06:24:04;;;;;;;12.50;7.07;;;;;;;;;;4422400;32;20056;-72
2023/05/21 06:26:29;;;;;;;11.82;7.15;;;;;;;;;;4422432;32;20283;-72
2023/05/21 06:28:55;;;;;;;10.45;6.22;;;;;;;;;;4422819;32;20023;-72
2023/05/21 06:31:21;;;;;;;8.07;6.37;;;;;;;;;;4422410;32;20026;-72
2023/05/21 06:33:48;;;;;;;8.32;5.28;;;;;;;;;;4436935;32;20023;-72
2023/05/21 06:36:13;;;;;;;8.23;6.65;;;;;;;;;;4437324;32;20411;-73
2023/05/21 06:38:38;;;;;;;8.50;6.50;;;;;;;;;;4438594;32;20018;-73
2023/05/21 06:41:03;;;;;;;9.20;7.13;;;;;;;;;;4438056;32;20113;-73
2023/05/21 06:43:28;;;;;;;12.70;7.15;;;;;;;;;;4437859;32;20491;-74
2023/05/21 06:45:54;;;;;;;9.40;6.10;;;;;;;;;;4436900;32;20075;-73
2023/05/21 06:48:19;;;;;;;9.20;6.43;;;;;;;;;;4438553;32;20033;-73
2023/05/21 06:50:44;;;;;;;14.52;5.87;;;;;;;;;;4439438;32;20025;-73
2023/05/21 06:53:09;;;;;;;10.80;6.72;;;;;;;;;;4438321;32;20026;-72
2023/05/21 06:55:35;;;;;;;8.65;7.10;;;;;;;;;;4437884;32;20022;-73
2023/05/21 06:58:00;;;;;;;9.15;6.95;;;;;;;;;;4437229;32;20018;-73
2023/05/21 07:00:25;;;;;;;9.85;7.05;;;;;;;;;;4437062;32;20071;-71
2023/05/21 07:02:50;;;;;;;8.10;6.90;;;;;;;;;;4434559;32;20068;-74
2023/05/21 07:05:15;;;;;;;11.35;7.32;;;;;;;;;;4438246;32;20482;-73
2023/05/21 07:07:41;;;;;;;13.25;7.30;;;;;;;;;;4437481;32;20084;-73
2023/05/21 07:10:07;;;;;;;9.50;6.87;;;;;;;;;;4421388;32;20121;-73
2023/05/21 07:12:32;;;;;;;11.55;6.90;;;;;;;;;;4421741;32;20482;-73
2023/05/21 07:14:57;;;;;;;9.20;7.18;;;;;;;;;;4421990;32;20063;-73
2023/05/21 07:17:23;;;;;;;10.32;6.78;;;;;;;;;;4422465;32;20399;-73
2023/05/21 07:19:48;;;;;;;9.20;6.60;;;;;;;;;;4425572;32;20022;-72
2023/05/21 07:22:13;;;;;;;11.45;6.35;;;;;;;;;;4423323;32;20156;-73
2023/05/21 07:24:38;;;;;;;10.50;6.65;;;;;;;;;;4422046;32;20174;-72
2023/05/21 07:27:05;;;;;;;10.13;7.33;;;;;;;;;;4420353;32;20411;-72
2023/05/21 07:29:31;;;;;;;13.32;6.45;;;;;;;;;;4422482;32;20196;-73
2023/05/21 07:31:56;;;;;;;8.75;7.05;;;;;;;;;;4425188;32;20048;-72
2023/05/21 07:34:21;;;;;;;9.10;7.80;;;;;;;;;;4435833;32;20021;-72
2023/05/21 07:36:47;;;;;;;11.53;6.97;;;;;;;;;;4437433;32;20132;-72
2023/05/21 07:39:12;;;;;;;10.18;6.55;;;;;;;;;;4436262;32;20206;-73
2023/05/21 07:41:37;;;;;;;11.70;6.95;;;;;;;;;;4437598;32;20037;-73
2023/05/21 07:44:02;;;;;;;10.67;7.77;;;;;;;;;;4437006;32;20026;-74
2023/05/21 07:46:27;;;;;;;8.85;7.18;;;;;;;;;;4436793;32;20418;-74
2023/05/21 07:48:53;;;;;;;11.47;7.13;;;;;;;;;;4438210;32;20090;-73
2023/05/21 07:51:18;;;;;;;15.18;7.00;;;;;;;;;;4436246;32;20528;-73
2023/05/21 07:53:43;;;;;;;16.42;7.28;;;;;;;;;;4437239;32;20041;-73
2023/05/21 07:56:08;;;;;;;8.57;7.35;;;;;;;;;;4436188;32;20453;-73
2023/05/21 07:58:34;;;;;;;9.43;6.97;;;;;;;;;;4436918;32;20060;-73
2023/05/21 08:00:59;;;;;;;10.43;7.03;;;;;;;;;;4435316;32;20044;-74
2023/05/21 08:03:25;;;;;;;10.60;7.97;;;;;;;;;;4434529;32;20029;-73
2023/05/21 08:05:50;;;;;;;9.88;8.02;;;;;;;;;;4436980;32;20018;-73
2023/05/21 08:08:16;;;;;;;9.27;7.57;;;;;;;;;;4437103;32;20438;-73
2023/05/21 08:10:41;;;;;;;11.48;7.57;;;;;;;;;;4434860;32;20061;-72
2023/05/21 08:13:07;;;;;;;13.85;7.95;;;;;;;;;;4437253;32;20060;-72
2023/05/21 08:15:32;;;;;;;9.75;7.55;;;;;;;;;;4436399;32;20097;-72
2023/05/21 08:17:57;;;;;;;10.30;6.93;;;;;;;;;;4434808;32;20053;-73
2023/05/21 08:20:22;;;;;;;10.50;7.53;;;;;;;;;;4435870;32;20212;-72
2023/05/21 08:22:48;;;;;;;8.77;7.00;;;;;;;;;;4436391;32;20044;-72
2023/05/21 08:25:13;;;;;;;10.60;7.05;;;;;;;;;;4435913;32;20112;-72
2023/05/21 08:27:39;;;;;;;11.23;7.10;;;;;;;;;;4434843;32;20300;-72
2023/05/21 08:30:04;;;;;;;8.63;6.62;;;;;;;;;;4436296;32;20022;-73
2023/05/21 08:32:30;;;;;;;7.55;6.68;;;;;;;;;;4436921;32;20422;-73
2023/05/21 08:34:56;;;;;;;12.00;7.47;;;;;;;;;;4436546;32;20441;-72
2023/05/21 08:37:21;;;;;;;8.35;6.85;;;;;;;;;;4437007;32;20022;-73
2023/05/21 08:39:46;;;;;;;13.62;7.35;;;;;;;;;;4425528;32;20056;-72
2023/05/21 08:42:18;;;;;;;9.75;7.22;;;;;;;;;;4422165;32;20056;-72
2023/05/21 08:44:47;;;;;;;14.68;7.75;;;;;;;;;;4424127;32;20063;-73
2023/05/21 08:47:15;;;;;;;14.13;7.37;;;;;;;;;;4436557;32;20065;-74
2023/05/21 08:49:41;;;;;;;9.48;7.87;;;;;;;;;;4435786;32;20495;-73
2023/05/21 08:52:07;;;;;;;9.02;7.12;;;;;;;;;;4435657;32;20017;-73
2023/05/21 08:54:32;;;;;;;8.52;6.93;;;;;;;;;;4437188;32;20044;-72
2023/05/21 08:56:58;;;;;;;9.10;7.05;;;;;;;;;;4436822;32;20014;-73
2023/05/21 08:59:23;;;;;;;9.15;6.70;;;;;;;;;;4435832;32;20038;-73
2023/05/21 09:01:48;;;;;;;11.43;7.43;;;;;;;;;;4436544;32;20052;-72
2023/05/21 09:04:15;;;;;;;10.52;7.43;;;;;;;;;;4435777;32;20021;-72
2023/05/21 09:06:40;;;;;;;9.30;6.87;;;;;;;;;;4435768;32;20048;-72
2023/05/21 09:09:09;;;;;;;10.25;7.07;;;;;;;;;;4435443;32;20109;-74
2023/05/21 09:11:35;;;;;;;9.23;7.22;;;;;;;;;;4432890;32;20025;-73
2023/05/21 09:14:00;;;;;;;8.13;6.85;;;;;;;;;;4434741;32;20124;-73
2023/05/21 09:16:25;;;;;;;9.57;7.35;;;;;;;;;;4435408;32;20078;-73
2023/05/21 09:18:50;;;;;;;8.20;6.60;;;;;;;;;;4436644;32;20340;-73
2023/05/21 09:21:22;;;;;;;11.33;7.03;;;;;;;;;;4436206;32;20121;-72
2023/05/21 09:23:52;;;;;;;9.23;6.90;;;;;;;;;;4437132;32;20140;-72
2023/05/21 09:26:20;;;;;;;9.43;7.32;;;;;;;;;;4435448;32;20085;-72
2023/05/21 09:28:46;;;;;;;10.00;7.10;;;;;;;;;;4436244;32;20026;-72
2023/05/21 09:31:11;;;;;;;10.75;6.62;;;;;;;;;;4435009;32;20059;-72
2023/05/21 09:33:44;;;;;;;8.82;7.20;;;;;;;;;;4435502;32;20399;-72
2023/05/21 09:36:09;;;;;;;11.02;7.15;;;;;;;;;;4436350;32;20092;-73
2023/05/21 09:38:34;;;;;;;10.68;6.80;;;;;;;;;;4434730;32;20078;-72
2023/05/21 09:41:03;;;;;;;11.02;7.50;;;;;;;;;;4434181;32;20082;-73
2023/05/21 09:43:29;;;;;;;8.05;6.00;;;;;;;;;;4434606;32;20026;-74
2023/05/21 09:45:55;;;;;;;9.43;7.47;;;;;;;;;;4433588;32;20030;-73
2023/05/21 09:48:40;;;;;;;13.52;6.78;;;;;;;;;;4433802;32;20449;-72
2023/05/21 09:51:13;;;;;;;8.85;6.40;;;;;;;;;;4434846;32;20048;-73
2023/05/21 09:53:41;;;;;;;11.50;7.05;;;;;;;;;;4436518;32;20430;-73
2023/05/21 09:56:07;;;;;;;10.90;6.45;;;;;;;;;;4434541;32;20034;-72
2023/05/21 09:58:33;;;;;;;9.52;6.37;;;;;;;;;;4434381;32;20045;-73
2023/05/21 10:00:58;;;;;;;10.38;7.07;;;;;;;;;;4435191;32;20071;-72
2023/05/21 10:03:25;;;;;;;10.73;6.82;;;;;;;;;;4434814;32;20075;-72
2023/05/21 10:05:52;;;;;;;12.45;7.50;;;;;;;;;;4430465;32;20051;-72
2023/05/21 10:08:19;;;;;;;7.55;6.68;;;;;;;;;;4434919;32;20046;-73
2023/05/21 10:10:45;;;;;;;10.32;7.18;;;;;;;;;;4435776;32;20021;-74
2023/05/21 10:13:11;;;;;;;7.93;5.82;;;;;;;;;;4436844;32;20021;-73
2023/05/21 10:15:37;;;;;;;10.70;6.35;;;;;;;;;;4435044;32;20029;-73
2023/05/21 10:18:03;;;;;;;12.52;7.07;;;;;;;;;;4435865;32;20091;-73
2023/05/21 10:20:28;;;;;;;10.73;6.93;;;;;;;;;;4433212;32;20025;-73
2023/05/21 10:22:54;;;;;;;10.77;6.93;;;;;;;;;;4436556;32;20017;-72
2023/05/21 10:25:20;;;;;;;9.57;6.12;;;;;;;;;;4433585;32;20022;-72
2023/05/21 10:27:45;;;;;;;10.57;6.78;;;;;;;;;;4433740;32;20034;-72
2023/05/21 10:30:11;;;;;;;10.10;6.18;;;;;;;;;;4423962;32;20379;-74
2023/05/21 10:32:38;;;;;;;9.40;6.45;;;;;;;;;;4434245;32;20022;-73
2023/05/21 10:35:04;;;;;;;8.80;6.75;;;;;;;;;;4420199;32;20048;-74
2023/05/21 10:37:29;;;;;;;9.98;6.45;;;;;;;;;;4420657;32;20038;-73
2023/05/21 10:39:55;;;;;;;12.98;7.43;;;;;;;;;;4433207;32;20048;-73
2023/05/21 10:42:20;;;;;;;7.53;5.87;;;;;;;;;;4434608;32;20052;-72
2023/05/21 10:44:54;;;;;;;7.70;6.10;;;;;;;;;;4436601;32;20114;-73
2023/05/21 10:47:29;;;;;;;9.82;6.18;;;;;;;;;;4435699;32;20117;-73
2023/05/21 10:50:06;;;;;;;7.78;6.22;;;;;;;;;;4431606;32;20088;-72
2023/05/21 10:52:31;;;;;;;7.82;6.37;;;;;;;;;;4436756;32;20025;-74
2023/05/21 10:55:03;;;;;;;14.13;7.80;;;;;;;;;;4438938;32;20429;-72
2023/05/21 10:57:28;;;;;;;17.60;7.75;;;;;;;;;;4438999;32;20526;-73
2023/05/21 10:59:53;;;;;;;8.98;6.65;;;;;;;;;;4437232;32;20056;-73
2023/05/21 11:02:19;;;;;;;9.80;7.03;;;;;;;;;;4433876;32;20418;-72
2023/05/21 11:04:47;;;;;;;8.82;6.37;;;;;;;;;;4430022;32;20049;-73
2023/05/21 11:07:13;;;;;;;8.63;6.65;;;;;;;;;;4430098;32;20060;-72
2023/05/21 11:09:38;;;;;;;8.98;7.37;;;;;;;;;;4431318;32;20014;-73
2023/05/21 11:12:03;;;;;;;14.80;7.80;;;;;;;;;;4431909;32;20026;-72
2023/05/21 11:14:37;;;;;;;11.50;6.62;;;;;;;;;;4437308;32;20045;-72
2023/05/21 11:17:08;;;;;;;11.75;7.47;;;;;;;;;;4437215;32;20054;-73
2023/05/21 11:19:34;;;;;;;9.73;8.02;;;;;;;;;;4438455;32;20357;-72
2023/05/21 11:22:00;;;;;;;12.85;7.30;;;;;;;;;;4438700;32;20355;-72
2023/05/21 11:24:27;;;;;;;11.23;6.10;;;;;;;;;;4436699;32;20425;-72
2023/05/21 11:26:57;;;;;;;10.55;6.68;;;;;;;;;;4437098;32;20456;-71
2023/05/21 11:29:30;;;;;;;9.05;6.95;;;;;;;;;;4436609;32;20068;-72
2023/05/21 11:32:02;;;;;;;12.88;7.22;;;;;;;;;;4437240;32;20044;-72
2023/05/21 11:34:41;;;;;;;8.82;6.95;;;;;;;;;;4436572;32;20339;-72
2023/05/21 11:37:39;;;;;;;8.68;6.65;;;;;;;;;;4436595;32;20411;-73
2023/05/21 11:40:17;;;;;;;8.63;6.53;;;;;;;;;;4436066;32;20040;-72
2023/05/21 11:42:42;;;;;;;7.47;6.18;;;;;;;;;;4436708;32;20088;-72
2023/05/21 11:45:08;;;;;;;8.32;6.07;;;;;;;;;;4436370;32;20472;-71
2023/05/21 11:47:33;;;;;;;8.82;7.28;;;;;;;;;;4436696;32;20401;-72
2023/05/21 11:50:02;;;;;;;10.25;7.32;;;;;;;;;;4437165;32;20047;-72
2023/05/21 11:52:29;;;;;;;10.45;7.93;;;;;;;;;;4437166;32;20041;-72
2023/05/21 11:54:55;;;;;;;11.12;7.57;;;;;;;;;;4436005;32;20105;-72
2023/05/21 11:57:21;;;;;;;10.70;6.53;;;;;;;;;;4435643;32;20074;-72
2023/05/21 11:59:48;;;;;;;9.68;6.03;;;;;;;;;;4437730;32;20046;-73
2023/05/21 12:02:17;;;;;;;10.68;6.68;;;;;;;;;;4436214;32;20316;-72
2023/05/21 12:04:43;;;;;;;12.77;6.90;;;;;;;;;;4435925;32;20095;-72
2023/05/21 12:07:09;;;;;;;8.77;6.55;;;;;;;;;;4435951;32;20018;-71
2023/05/21 12:09:41;;;;;;;9.00;6.55;;;;;;;;;;4435747;32;20444;-72
2023/05/21 12:12:12;;;;;;;12.32;7.62;;;;;;;;;;4436381;32;20052;-72
2023/05/21 12:14:37;;;;;;;8.35;6.70;;;;;;;;;;4434710;32;20407;-73
2023/05/21 12:17:03;;;;;;;9.30;7.25;;;;;;;;;;4435238;32;20113;-73
2023/05/21 12:19:36;;;;;;;10.73;7.10;;;;;;;;;;4435562;32;20092;-73
2023/05/21 12:22:01;;;;;;;12.75;7.35;;;;;;;;;;4436059;32;20026;-72
2023/05/21 12:24:27;;;;;;;8.32;7.05;;;;;;;;;;4437697;32;20316;-73
2023/05/21 12:26:53;;;;;;;12.77;7.20;;;;;;;;;;4434017;32;20029;-72
2023/05/21 12:29:19;;;;;;;12.15;7.65;;;;;;;;;;4435781;32;20410;-72
2023/05/21 12:31:48;;;;;;;9.38;7.90;;;;;;;;;;4434567;32;20135;-73
2023/05/21 12:34:14;;;;;;;11.55;7.43;;;;;;;;;;4435148;32;20044;-72
2023/05/21 12:36:44;;;;;;;8.75;6.50;;;;;;;;;;4436398;32;20022;-73
2023/05/21 12:39:10;;;;;;;7.50;5.82;;;;;;;;;;4435985;32;20040;-73
2023/05/21 12:41:35;;;;;;;12.35;7.72;;;;;;;;;;4435203;32;20026;-73
2023/05/21 12:44:01;;;;;;;9.02;7.18;;;;;;;;;;4435309;32;20038;-72
2023/05/21 12:46:26;;;;;;;11.07;7.10;;;;;;;;;;4435741;32;20383;-73
2023/05/21 12:48:52;;;;;;;10.18;7.25;;;;;;;;;;4435295;32;20087;-72
2023/05/21 12:51:18;;;;;;;9.00;6.97;;;;;;;;;;4435681;32;20048;-72
2023/05/21 12:53:44;;;;;;;11.90;7.65;;;;;;;;;;4433353;32;20431;-72
2023/05/21 12:56:12;;;;;;;10.43;7.03;;;;;;;;;;4436002;32;20041;-72
2023/05/21 12:58:38;;;;;;;9.55;7.00;;;;;;;;;;4436760;32;20110;-72
2023/05/21 13:01:07;;;;;;;9.40;7.35;;;;;;;;;;4433767;32;20145;-72
2023/05/21 13:03:32;;;;;;;8.25;6.85;;;;;;;;;;4433825;32;20053;-72
2023/05/21 13:06:00;;;;;;;11.60;7.35;;;;;;;;;;4434695;32;20060;-71
2023/05/21 13:08:26;;;;;;;8.68;7.28;;;;;;;;;;4431872;32;20392;-72
2023/05/21 13:10:51;;;;;;;10.27;7.72;;;;;;;;;;4434432;32;20269;-73
2023/05/21 13:13:16;;;;;;;9.18;7.30;;;;;;;;;;4434659;32;20048;-72
2023/05/21 13:15:42;;;;;;;11.52;7.43;;;;;;;;;;4436640;32;20148;-72
2023/05/21 13:18:07;;;;;;;11.35;6.50;;;;;;;;;;4436693;32;20044;-72
2023/05/21 13:20:32;;;;;;;11.15;7.15;;;;;;;;;;4434966;32;20021;-73
2023/05/21 13:22:58;;;;;;;12.63;6.37;;;;;;;;;;4433886;32;20374;-73
2023/05/21 13:25:26;;;;;;;7.35;6.05;;;;;;;;;;4436824;32;20109;-72
2023/05/21 13:27:52;;;;;;;8.23;6.55;;;;;;;;;;4433532;32;20013;-72
2023/05/21 13:30:17;;;;;;;9.18;7.43;;;;;;;;;;4435478;32;20396;-72
2023/05/21 13:32:43;;;;;;;13.80;7.15;;;;;;;;;;4434657;32;20022;-72
2023/05/21 13:35:08;;;;;;;9.15;7.05;;;;;;;;;;4433081;32;20071;-71
2023/05/21 13:37:37;;;;;;;10.43;6.28;;;;;;;;;;4436225;32;20108;-72
2023/05/21 13:40:02;;;;;;;9.13;6.93;;;;;;;;;;4435352;32;20513;-72
2023/05/21 13:42:28;;;;;;;10.88;7.35;;;;;;;;;;4434086;32;20021;-72
2023/05/21 13:44:53;;;;;;;10.70;7.60;;;;;;;;;;4434087;32;20101;-72
2023/05/21 13:47:18;;;;;;;9.63;7.55;;;;;;;;;;4434825;32;20449;-72
2023/05/21 13:49:43;;;;;;;12.70;7.40;;;;;;;;;;4434014;32;20317;-72
2023/05/21 13:52:08;;;;;;;8.57;6.67;;;;;;;;;;4435746;32;20147;-72
2023/05/21 13:54:35;;;;;;;17.00;6.30;;;;;;;;;;4435295;32;20151;-72
2023/05/21 13:57:00;;;;;;;12.90;6.70;;;;;;;;;;4434666;32;20017;-72
2023/05/21 13:59:25;;;;;;;13.35;6.57;;;;;;;;;;4435218;32;20038;-72
2023/05/21 14:01:51;;;;;;;10.75;7.28;;;;;;;;;;4433819;32;20334;-73
2023/05/21 14:04:16;;;;;;;9.40;7.15;;;;;;;;;;4434930;32;20052;-72
2023/05/21 14:06:41;;;;;;;10.82;7.87;;;;;;;;;;4435040;32;20099;-73
2023/05/21 14:09:07;;;;;;;11.10;6.97;;;;;;;;;;4435358;32;20093;-72
2023/05/21 14:11:32;;;;;;;7.47;6.68;;;;;;;;;;4436199;32;20183;-71
2023/05/21 14:13:58;;;;;;;9.00;6.40;;;;;;;;;;4435427;32;20026;-72
2023/05/21 14:16:26;;;;;;;9.43;6.50;;;;;;;;;;4433934;32;20017;-72
2023/05/21 14:18:51;;;;;;;9.70;7.30;;;;;;;;;;4435007;32;20074;-72
2023/05/21 14:21:16;;;;;;;9.25;6.72;;;;;;;;;;4436383;32;20413;-72
2023/05/21 14:23:41;;;;;;;72.15;67.45;;;;;;;;;;4438490;32;20053;-72
2023/05/21 14:26:06;;;;;;;11.68;7.57;;;;;;;;;;4436265;32;20064;-72
2023/05/21 14:28:32;;;;;;;10.05;7.30;;;;;;;;;;4438446;32;20434;-71
2023/05/21 14:30:57;;;;;;;9.73;7.30;;;;;;;;;;4439514;32;20041;-73
2023/05/21 14:33:22;;;;;;;13.03;7.70;;;;;;;;;;4437558;32;20569;-71